Time;durP1;ratioP1;P1;durP2;ratioP2;P2;SDS_P1;SDS_P2;PMS_P1;PMS_P2;Temp;Humidity;BMP_temperature;BMP_pressure;BME280_temperature;BME280_humidity;BME280_pressure;Samples;Min_cycle;Max_cycle;Signal;HPM_P1;HPM_P2
2021/09/20 00:02:09;;;;;;;6.22;1.50;;;;;;;16.63;85.75;101269.84;5041174;28;20497;-65
2021/09/20 00:04:36;;;;;;;7.43;1.58;;;;;;;16.40;82.33;101267.75;5055644;28;20741;-64
2021/09/20 00:07:04;;;;;;;5.85;1.90;;;;;;;16.51;82.92;101269.00;5057467;28;20057;-64
2021/09/20 00:09:31;;;;;;;5.90;1.60;;;;;;;16.54;84.22;101271.94;5055910;28;20051;-64
2021/09/20 00:11:58;;;;;;;6.30;1.50;;;;;;;16.02;85.38;101267.84;5038751;28;20053;-65
2021/09/20 00:14:26;;;;;;;5.57;1.35;;;;;;;16.09;86.98;101267.31;5052781;28;20049;-64
2021/09/20 00:16:55;;;;;;;6.22;1.35;;;;;;;16.50;85.79;101264.59;5042042;28;20057;-64
2021/09/20 00:19:23;;;;;;;7.75;1.70;;;;;;;16.32;84.55;101266.66;5045722;28;20073;-65
2021/09/20 00:21:50;;;;;;;6.60;1.30;;;;;;;16.62;86.32;101267.41;5039838;28;20045;-65
2021/09/20 00:24:18;;;;;;;5.53;1.63;;;;;;;16.47;81.69;101262.50;5050745;28;20041;-66
2021/09/20 00:26:46;;;;;;;7.03;1.50;;;;;;;17.17;83.35;101256.75;5037043;28;20053;-65
2021/09/20 00:29:14;;;;;;;6.22;1.60;;;;;;;17.40;80.70;101259.91;5049035;28;20049;-64
2021/09/20 00:31:44;;;;;;;4.80;1.42;;;;;;;17.72;78.87;101256.25;5048345;28;20046;-65
2021/09/20 00:34:12;;;;;;;4.20;1.02;;;;;;;17.38;76.48;101257.44;5038692;28;20056;-65
2021/09/20 00:36:40;;;;;;;8.98;1.50;;;;;;;16.91;81.97;101256.19;5047819;28;20053;-64
2021/09/20 00:39:07;;;;;;;5.53;1.67;;;;;;;17.15;80.86;101252.66;5036456;28;20654;-63
2021/09/20 00:41:34;;;;;;;5.82;1.40;;;;;;;17.35;80.68;101252.59;5037995;28;20056;-64
2021/09/20 00:44:02;;;;;;;3.13;1.13;;;;;;;17.43;76.45;101256.44;5036464;28;20058;-62
2021/09/20 00:46:30;;;;;;;5.88;1.45;;;;;;;17.26;79.54;101251.88;5037424;28;20515;-63
2021/09/20 00:48:57;;;;;;;4.80;1.35;;;;;;;17.07;81.68;101248.00;5036439;28;20042;-63
2021/09/20 00:51:24;;;;;;;3.33;1.33;;;;;;;17.79;78.68;101250.91;5036466;28;20049;-62
2021/09/20 00:53:51;;;;;;;4.45;1.30;;;;;;;18.16;77.21;101246.09;5037700;28;20072;-63
2021/09/20 00:56:19;;;;;;;7.70;1.83;;;;;;;18.25;75.04;101241.22;5036601;28;20053;-63
2021/09/20 00:58:46;;;;;;;5.50;1.33;;;;;;;17.32;76.86;101241.31;5047316;28;20044;-63
2021/09/20 01:01:13;;;;;;;4.10;1.15;;;;;;;17.76;76.96;101244.06;5052640;28;20041;-62
2021/09/20 01:03:41;;;;;;;3.38;1.20;;;;;;;17.78;78.82;101243.72;5057508;28;20053;-63
2021/09/20 01:06:08;;;;;;;4.68;1.70;;;;;;;17.42;79.31;101254.78;5029937;28;20049;-63
2021/09/20 01:08:36;;;;;;;6.75;1.65;;;;;;;17.47;80.00;101249.84;5041494;28;20059;-62
2021/09/20 01:11:03;;;;;;;9.80;2.30;;;;;;;17.32;79.13;101247.72;5044829;28;20045;-64
2021/09/20 01:13:31;;;;;;;3.95;1.27;;;;;;;18.01;77.98;101241.25;5064393;28;20412;-64
2021/09/20 01:15:58;;;;;;;5.75;1.48;;;;;;;17.48;77.27;101245.91;5045049;28;20061;-64
2021/09/20 01:18:25;;;;;;;4.18;1.30;;;;;;;17.51;79.85;101239.66;5050790;28;20048;-64
2021/09/20 01:20:53;;;;;;;9.80;1.80;;;;;;;17.68;78.25;101247.75;5042844;28;20057;-64
2021/09/20 01:23:20;;;;;;;5.45;1.63;;;;;;;17.13;78.87;101233.53;5048403;28;20056;-62
2021/09/20 01:25:47;;;;;;;4.63;1.52;;;;;;;16.67;82.92;101237.44;5051713;28;20057;-63
2021/09/20 01:28:15;;;;;;;4.75;1.50;;;;;;;16.26;83.02;101239.41;5050084;28;20061;-62
2021/09/20 01:30:42;;;;;;;4.85;1.50;;;;;;;16.32;86.16;101240.84;5043609;28;20052;-63
2021/09/20 01:33:10;;;;;;;5.90;1.50;;;;;;;16.46;86.01;101239.41;5051779;28;20061;-62
2021/09/20 01:35:37;;;;;;;5.75;1.60;;;;;;;17.32;81.84;101239.34;5050420;28;20049;-64
2021/09/20 01:38:05;;;;;;;3.50;1.45;;;;;;;17.11;78.14;101235.00;5039526;28;20485;-63
2021/09/20 01:40:32;;;;;;;7.90;1.75;;;;;;;16.51;83.90;101230.88;5056793;28;20052;-63
2021/09/20 01:43:00;;;;;;;6.28;1.88;;;;;;;15.94;85.64;101234.53;5053378;28;20075;-64
2021/09/20 01:45:27;;;;;;;5.97;1.90;;;;;;;16.34;85.36;101227.38;5046477;28;20042;-66
2021/09/20 01:47:54;;;;;;;6.68;1.60;;;;;;;16.97;83.69;101223.38;5037480;28;20525;-66
2021/09/20 01:50:22;;;;;;;8.65;1.58;;;;;;;17.02;80.03;101225.94;5037658;28;20072;-63
2021/09/20 01:52:50;;;;;;;7.20;1.92;;;;;;;16.75;84.92;101228.19;5049740;28;20435;-64
2021/09/20 01:55:17;;;;;;;7.35;1.77;;;;;;;16.97;82.92;101226.16;5039065;28;20049;-64
2021/09/20 01:57:45;;;;;;;6.25;1.83;;;;;;;17.00;83.09;101223.50;5043718;28;20627;-64
2021/09/20 02:00:14;;;;;;;6.25;1.98;;;;;;;16.85;81.86;101221.38;5047633;28;20048;-64
2021/09/20 02:02:41;;;;;;;8.95;1.83;;;;;;;16.56;84.01;101227.09;5037155;28;20056;-62
2021/09/20 02:05:10;;;;;;;6.95;1.70;;;;;;;17.02;83.68;101217.59;5044244;28;20060;-62
2021/09/20 02:07:41;;;;;;;5.88;1.63;;;;;;;17.29;80.56;101217.78;5033701;28;20053;-64
2021/09/20 02:10:11;;;;;;;6.55;2.00;;;;;;;16.97;81.04;101223.38;5035843;28;20053;-62
2021/09/20 02:12:39;;;;;;;5.50;1.58;;;;;;;16.80;83.88;101214.09;5049784;28;20053;-64
2021/09/20 02:15:07;;;;;;;4.15;1.50;;;;;;;17.20;81.32;101216.25;5043506;28;20522;-63
2021/09/20 02:17:35;;;;;;;6.15;1.70;;;;;;;15.96;83.92;101221.13;5034474;28;20086;-63
2021/09/20 02:20:04;;;;;;;9.57;2.60;;;;;;;16.56;86.43;101210.41;5041730;28;20488;-62
2021/09/20 02:22:34;;;;;;;6.93;2.03;;;;;;;16.72;83.77;101209.41;5037621;28;20045;-63
2021/09/20 02:25:07;;;;;;;;;;;;;;;16.33;82.74;101209.09;5035780;28;20511;-64
2021/09/20 02:27:36;;;;;;;5.40;1.60;;;;;;;16.33;82.45;101209.09;5035402;28;19944;-62
2021/09/20 02:30:05;;;;;;;7.65;1.90;;;;;;;16.53;82.77;101213.84;5035344;28;20057;-63
2021/09/20 02:32:34;;;;;;;3.67;1.50;;;;;;;16.47;81.36;101204.09;5033603;28;20057;-62
2021/09/20 02:35:02;;;;;;;5.22;1.55;;;;;;;16.64;84.38;101195.56;5035052;28;20045;-63
2021/09/20 02:37:29;;;;;;;4.40;1.55;;;;;;;16.91;81.39;101202.50;5035294;28;20056;-63
2021/09/20 02:39:57;;;;;;;4.95;1.60;;;;;;;16.43;83.68;101215.06;5034956;28;20049;-62
2021/09/20 02:42:24;;;;;;;4.50;1.70;;;;;;;17.10;79.32;101206.38;5035064;28;20064;-64
2021/09/20 02:44:51;;;;;;;4.03;1.20;;;;;;;16.97;78.47;101198.34;5034911;28;20493;-62
2021/09/20 02:47:18;;;;;;;5.40;1.65;;;;;;;16.27;81.11;101207.66;5033312;28;20041;-63
2021/09/20 02:49:46;;;;;;;3.47;1.38;;;;;;;16.56;84.46;101204.84;5034663;28;20058;-63
2021/09/20 02:52:13;;;;;;;4.13;1.48;;;;;;;16.80;81.21;101199.34;5034503;28;20049;-63
2021/09/20 02:54:40;;;;;;;4.43;1.50;;;;;;;16.83;82.94;101201.44;5040171;28;20049;-64
2021/09/20 02:57:08;;;;;;;5.25;1.50;;;;;;;16.76;83.01;101202.00;5035278;28;20037;-64
2021/09/20 02:59:35;;;;;;;6.57;1.63;;;;;;;17.02;80.51;101203.69;5039181;28;20491;-64
2021/09/20 03:02:02;;;;;;;5.78;1.52;;;;;;;16.42;82.26;101209.84;5049760;28;20400;-64
2021/09/20 03:04:30;;;;;;;5.53;1.52;;;;;;;16.50;82.98;101214.53;5047125;28;20071;-65
2021/09/20 03:06:57;;;;;;;6.78;1.55;;;;;;;16.97;81.73;101204.72;5038994;28;20057;-65
2021/09/20 03:09:24;;;;;;;4.32;1.40;;;;;;;17.23;79.48;101210.81;5045598;28;20051;-64
2021/09/20 03:11:52;;;;;;;4.10;1.38;;;;;;;17.19;80.86;101215.44;5048618;28;20057;-64
2021/09/20 03:14:19;;;;;;;6.15;1.58;;;;;;;17.14;80.37;101204.50;5059173;28;20052;-63
2021/09/20 03:16:46;;;;;;;3.90;1.38;;;;;;;16.84;81.69;101205.88;5046508;28;20045;-63
2021/09/20 03:19:13;;;;;;;3.70;1.35;;;;;;;17.19;81.67;101209.84;5041968;28;20056;-63
2021/09/20 03:21:41;;;;;;;6.57;1.67;;;;;;;16.37;83.99;101208.06;5038194;28;20067;-63
2021/09/20 03:24:10;;;;;;;5.50;1.45;;;;;;;16.49;84.41;101218.47;5032759;28;20064;-63
2021/09/20 03:26:38;;;;;;;5.60;1.65;;;;;;;16.78;84.83;101204.44;5048904;28;20057;-64
2021/09/20 03:29:06;;;;;;;5.38;1.38;;;;;;;17.14;80.95;101212.88;5034217;28;20481;-64
2021/09/20 03:31:33;;;;;;;5.88;1.92;;;;;;;16.46;83.43;101216.31;5038294;28;20044;-62
2021/09/20 03:34:01;;;;;;;4.53;1.63;;;;;;;17.13;83.03;101214.03;5066008;28;20068;-62
2021/09/20 03:36:28;;;;;;;5.18;1.95;;;;;;;16.99;82.36;101219.09;5041846;28;20045;-62
2021/09/20 03:38:55;;;;;;;3.75;1.42;;;;;;;16.73;81.38;101222.16;5044248;28;20045;-62
2021/09/20 03:41:23;;;;;;;5.32;1.60;;;;;;;16.73;83.06;101224.13;5050768;28;20053;-63
2021/09/20 03:43:50;;;;;;;3.83;1.58;;;;;;;17.09;80.81;101227.00;5052955;28;20048;-63
2021/09/20 03:46:17;;;;;;;3.15;1.35;;;;;;;16.68;83.68;101221.56;5044003;28;20057;-63
2021/09/20 03:48:45;;;;;;;3.00;1.40;;;;;;;16.12;83.66;101224.94;5051662;28;20056;-63
2021/09/20 03:51:12;;;;;;;5.05;1.80;;;;;;;16.13;87.33;101223.78;5044697;28;20053;-62
2021/09/20 03:53:39;;;;;;;7.97;1.85;;;;;;;16.20;88.44;101219.31;5035144;28;20050;-62
2021/09/20 03:56:07;;;;;;;4.40;1.63;;;;;;;17.08;84.33;101221.78;5037793;28;20525;-64
2021/09/20 03:58:35;;;;;;;7.28;1.70;;;;;;;16.83;83.52;101224.50;5043677;28;20053;-63
2021/09/20 04:01:03;;;;;;;5.13;1.80;;;;;;;16.74;85.24;101222.97;5035437;28;20048;-64
2021/09/20 04:03:31;;;;;;;4.45;1.77;;;;;;;16.47;84.74;101224.38;5052128;28;20057;-63
2021/09/20 04:05:58;;;;;;;3.97;1.58;;;;;;;17.05;83.80;101225.28;5042813;28;20057;-64
2021/09/20 04:08:29;;;;;;;5.70;2.00;;;;;;;16.77;80.64;101219.53;5038710;28;20049;-63
2021/09/20 04:10:57;;;;;;;7.45;2.05;;;;;;;16.20;85.10;101221.28;5052458;28;20049;-63
2021/09/20 04:13:25;;;;;;;5.95;2.08;;;;;;;17.13;84.38;101221.56;5058195;28;20056;-63
2021/09/20 04:15:55;;;;;;;3.15;1.27;;;;;;;17.07;82.36;101223.75;5044235;28;20050;-64
2021/09/20 04:18:27;;;;;;;7.10;1.58;;;;;;;16.54;84.51;101226.59;5048308;28;20041;-65
2021/09/20 04:20:56;;;;;;;8.70;2.05;;;;;;;16.35;84.39;101223.47;5048248;28;20055;-64
2021/09/20 04:23:24;;;;;;;3.88;1.77;;;;;;;16.04;87.17;101220.28;5042590;28;20054;-64
2021/09/20 04:25:52;;;;;;;5.28;1.67;;;;;;;16.87;85.96;101224.66;5044574;28;20057;-64
2021/09/20 04:28:20;;;;;;;5.60;2.28;;;;;;;16.14;84.05;101233.78;5038272;28;20049;-64
2021/09/20 04:30:47;;;;;;;5.55;1.67;;;;;;;16.37;86.48;101229.50;5037196;28;20057;-63
2021/09/20 04:33:16;;;;;;;5.10;1.67;;;;;;;16.68;84.61;101227.13;5048377;28;20048;-63
2021/09/20 04:35:44;;;;;;;5.17;1.67;;;;;;;17.03;84.01;101225.63;5030747;28;20061;-64
2021/09/20 04:38:12;;;;;;;7.00;1.90;;;;;;;16.46;85.20;101224.66;5033339;28;20049;-64
2021/09/20 04:40:42;;;;;;;6.15;1.90;;;;;;;16.90;83.79;101221.16;5034651;28;20052;-64
2021/09/20 04:43:12;;;;;;;5.28;1.63;;;;;;;16.68;82.83;101222.34;5033716;28;20060;-64
2021/09/20 04:45:42;;;;;;;7.43;2.10;;;;;;;16.27;84.78;101221.56;5037159;28;20408;-66
2021/09/20 04:48:10;;;;;;;4.65;1.95;;;;;;;16.97;84.33;101228.94;5034562;28;20046;-64
2021/09/20 04:50:43;;;;;;;3.58;1.83;;;;;;;16.94;81.96;101229.63;5033435;28;20060;-63
2021/09/20 04:53:12;;;;;;;7.10;2.45;;;;;;;16.72;80.92;101226.09;5036254;28;20053;-64
2021/09/20 04:55:40;;;;;;;5.53;1.73;;;;;;;17.27;81.04;101224.84;5037261;28;20084;-64
2021/09/20 04:58:10;;;;;;;6.80;1.95;;;;;;;17.97;77.81;101227.22;5037322;28;20053;-63
2021/09/20 05:00:39;;;;;;;5.70;1.92;;;;;;;18.14;76.43;101229.72;5035776;28;20053;-64
2021/09/20 05:03:07;;;;;;;7.20;1.70;;;;;;;18.15;76.19;101227.75;5035874;28;20053;-63
2021/09/20 05:05:35;;;;;;;5.20;1.88;;;;;;;17.55;79.44;101228.63;5035791;28;20483;-65
2021/09/20 05:08:03;;;;;;;5.82;2.00;;;;;;;17.91;75.90;101226.63;5036323;28;20046;-64
2021/09/20 05:10:30;;;;;;;6.57;1.80;;;;;;;17.25;78.94;101227.97;5047517;28;20493;-64
2021/09/20 05:12:57;;;;;;;7.13;1.63;;;;;;;17.05;80.02;101226.06;5059620;28;20056;-64
2021/09/20 05:15:25;;;;;;;7.60;2.03;;;;;;;17.24;79.06;101233.91;5069906;28;20048;-64
2021/09/20 05:17:52;;;;;;;4.75;1.80;;;;;;;17.42;77.27;101235.28;5047611;28;20053;-64
2021/09/20 05:20:21;;;;;;;4.55;1.77;;;;;;;16.32;80.85;101247.19;5022298;28;20367;-64
2021/09/20 05:22:49;;;;;;;4.63;1.65;;;;;;;16.99;82.72;101248.91;5035285;28;20061;-63
2021/09/20 05:25:17;;;;;;;7.45;2.33;;;;;;;16.86;81.15;101248.03;5050833;28;20049;-63
2021/09/20 05:27:45;;;;;;;5.65;2.20;;;;;;;16.58;82.62;101247.03;5051340;28;20056;-64
2021/09/20 05:30:13;;;;;;;6.68;2.50;;;;;;;16.59;81.84;101251.41;5037352;28;20052;-65
2021/09/20 05:32:41;;;;;;;5.00;1.92;;;;;;;17.26;81.26;101249.09;5039475;28;20069;-64
2021/09/20 05:35:11;;;;;;;4.63;1.80;;;;;;;17.55;79.11;101248.94;5045927;28;20040;-64
2021/09/20 05:37:39;;;;;;;4.97;2.28;;;;;;;17.70;79.10;101242.66;5052494;28;20504;-63
2021/09/20 05:40:08;;;;;;;7.53;2.50;;;;;;;17.31;79.11;101246.06;5042644;28;20408;-64
2021/09/20 05:42:36;;;;;;;7.35;2.30;;;;;;;17.80;78.36;101244.19;5049837;28;20057;-64
2021/09/20 05:45:05;;;;;;;7.68;2.50;;;;;;;17.87;77.21;101250.78;5056284;28;20053;-63
2021/09/20 05:47:32;;;;;;;5.93;2.58;;;;;;;17.47;78.70;101252.63;5053341;28;20048;-64
2021/09/20 05:49:59;;;;;;;9.48;2.90;;;;;;;17.34;80.48;101250.16;5045523;28;20049;-64
2021/09/20 05:52:27;;;;;;;7.50;2.85;;;;;;;17.89;78.46;101250.44;5040369;28;20049;-67
2021/09/20 05:54:54;;;;;;;7.22;2.80;;;;;;;18.13;77.30;101247.63;5049866;28;20060;-64
2021/09/20 05:57:21;;;;;;;6.72;3.10;;;;;;;18.01;76.09;101247.63;5069069;28;20115;-64
2021/09/20 05:59:49;;;;;;;8.25;3.53;;;;;;;17.24;80.99;101251.41;5057293;28;20053;-65
2021/09/20 06:02:17;;;;;;;7.50;3.55;;;;;;;17.72;79.99;101248.72;5039671;28;20049;-66
2021/09/20 06:04:45;;;;;;;9.32;4.15;;;;;;;17.48;80.62;101262.63;5038419;28;20049;-64
2021/09/20 06:07:12;;;;;;;10.02;4.38;;;;;;;17.20;81.59;101260.78;5046465;28;20404;-64
2021/09/20 06:09:39;;;;;;;8.38;4.05;;;;;;;17.14;83.73;101256.63;5040399;28;20528;-63
2021/09/20 06:12:07;;;;;;;11.30;5.28;;;;;;;17.67;81.33;101262.88;5036150;28;20072;-67
2021/09/20 06:14:34;;;;;;;8.98;4.97;;;;;;;17.83;80.36;101257.41;5059089;28;20048;-66
2021/09/20 06:17:01;;;;;;;10.75;5.55;;;;;;;17.62;80.30;101257.53;5047555;28;20500;-63
2021/09/20 06:19:29;;;;;;;11.90;6.82;;;;;;;17.31;81.35;101268.34;5046980;28;20045;-65
2021/09/20 06:21:56;;;;;;;13.80;6.15;;;;;;;17.25;83.74;101271.72;5043999;28;20057;-63
2021/09/20 06:24:26;;;;;;;10.98;5.95;;;;;;;17.74;82.61;101267.84;5034431;28;20050;-64
2021/09/20 06:26:53;;;;;;;21.98;8.20;;;;;;;17.05;84.71;101270.59;5049447;28;20086;-63
2021/09/20 06:29:23;;;;;;;17.15;8.85;;;;;;;16.37;89.43;101283.13;5020528;28;20080;-63
2021/09/20 06:31:50;;;;;;;13.45;8.30;;;;;;;16.34;90.60;101271.88;5036046;28;20053;-63
2021/09/20 06:34:18;;;;;;;13.35;8.40;;;;;;;16.74;89.00;101279.44;5046471;28;20052;-65
2021/09/20 06:36:45;;;;;;;15.55;7.32;;;;;;;17.54;84.52;101283.50;5038710;28;20057;-64
2021/09/20 06:39:12;;;;;;;15.40;8.68;;;;;;;17.67;82.49;101278.78;5035197;28;20051;-64
2021/09/20 06:41:39;;;;;;;13.18;8.35;;;;;;;17.83;81.48;101283.31;5041149;28;20049;-65
2021/09/20 06:44:09;;;;;;;18.75;9.40;;;;;;;17.49;83.17;101285.69;5041515;28;20056;-63
2021/09/20 06:46:37;;;;;;;18.73;10.43;;;;;;;17.04;85.90;101294.03;5035197;28;20064;-63
2021/09/20 06:49:05;;;;;;;21.65;10.40;;;;;;;16.63;89.92;101294.88;5034881;28;20400;-63
2021/09/20 06:51:32;;;;;;;16.67;9.95;;;;;;;16.96;88.24;101294.13;5041902;28;20045;-64
2021/09/20 06:54:00;;;;;;;16.98;10.13;;;;;;;17.43;86.07;101293.47;5042829;28;20064;-63
2021/09/20 06:56:27;;;;;;;19.50;11.80;;;;;;;17.24;85.32;101301.53;5051175;28;20056;-64
2021/09/20 06:58:54;;;;;;;19.42;11.95;;;;;;;17.24;87.09;101300.72;5049925;28;20749;-65
2021/09/20 07:01:22;;;;;;;24.30;13.48;;;;;;;16.74;88.26;101303.63;5057905;28;20058;-63
2021/09/20 07:03:49;;;;;;;24.20;12.63;;;;;;;17.07;88.76;101310.03;5039520;28;20049;-65
2021/09/20 07:06:17;;;;;;;26.23;13.05;;;;;;;17.23;87.19;101310.22;5035188;28;20061;-63
2021/09/20 07:08:44;;;;;;;21.92;13.75;;;;;;;16.68;90.66;101313.38;5035041;28;20060;-62
2021/09/20 07:11:12;;;;;;;19.17;11.70;;;;;;;17.27;88.81;101317.56;5046643;28;20606;-64
2021/09/20 07:13:39;;;;;;;22.90;13.48;;;;;;;17.50;85.22;101316.03;5045142;28;20057;-63
2021/09/20 07:16:06;;;;;;;25.83;14.38;;;;;;;16.64;90.20;101318.78;5055908;28;20050;-63
2021/09/20 07:18:34;;;;;;;24.88;14.85;;;;;;;16.23;94.13;101315.94;5042015;28;20488;-64
2021/09/20 07:21:01;;;;;;;22.42;12.32;;;;;;;16.77;92.72;101319.69;5047180;28;20485;-63
2021/09/20 07:23:28;;;;;;;22.98;13.27;;;;;;;16.58;92.70;101325.69;5035197;28;20053;-64
2021/09/20 07:25:56;;;;;;;20.27;13.23;;;;;;;16.60;92.58;101319.78;5034558;28;20046;-64
2021/09/20 07:28:23;;;;;;;19.27;12.82;;;;;;;16.58;94.08;101322.13;5039435;28;20504;-63
2021/09/20 07:30:50;;;;;;;24.58;13.48;;;;;;;16.80;91.49;101325.38;5048752;28;20437;-63
2021/09/20 07:33:18;;;;;;;17.67;10.88;;;;;;;17.35;89.02;101324.16;5038235;28;20547;-64
2021/09/20 07:35:45;;;;;;;22.05;12.02;;;;;;;17.55;86.43;101326.94;5037532;28;20060;-64
2021/09/20 07:38:13;;;;;;;18.67;12.52;;;;;;;16.65;90.60;101339.06;5034875;28;20064;-64
2021/09/20 07:40:40;;;;;;;20.75;13.43;;;;;;;16.48;92.74;101330.84;5034469;28;20056;-64
2021/09/20 07:43:07;;;;;;;20.42;12.45;;;;;;;16.69;92.40;101338.06;5021342;28;20049;-63
2021/09/20 07:45:35;;;;;;;18.60;12.10;;;;;;;16.64;91.74;101332.69;5036759;28;20519;-65
2021/09/20 07:48:02;;;;;;;20.40;11.70;;;;;;;17.00;92.10;101340.41;5056112;28;20049;-64
2021/09/20 07:50:30;;;;;;;18.13;11.52;;;;;;;17.65;89.60;101343.19;5067134;28;20519;-63
2021/09/20 07:52:57;;;;;;;21.40;11.63;;;;;;;17.18;89.40;101343.84;5057716;28;20496;-65
2021/09/20 07:55:25;;;;;;;19.00;11.18;;;;;;;18.12;86.51;101337.19;5050687;28;20048;-62
2021/09/20 07:57:53;;;;;;;20.08;11.57;;;;;;;17.26;88.18;101345.75;5042384;28;20044;-64
2021/09/20 08:00:20;;;;;;;25.30;12.65;;;;;;;16.96;88.82;101341.44;5047625;28;20523;-63
2021/09/20 08:02:48;;;;;;;27.13;12.20;;;;;;;16.95;89.34;101348.13;5065923;28;20049;-64
2021/09/20 08:05:15;;;;;;;28.58;13.32;;;;;;;17.79;86.51;101348.44;5044891;28;20064;-64
2021/09/20 08:07:43;;;;;;;25.40;12.30;;;;;;;17.92;85.22;101350.88;5053207;28;20056;-63
2021/09/20 08:10:10;;;;;;;25.10;11.10;;;;;;;18.39;82.10;101350.44;5051066;28;20042;-65
2021/09/20 08:12:38;;;;;;;17.10;9.90;;;;;;;18.14;83.93;101346.00;5040003;28;20063;-63
2021/09/20 08:15:06;;;;;;;19.60;10.55;;;;;;;18.15;82.68;101361.59;5044224;28;20053;-65
2021/09/20 08:17:33;;;;;;;23.05;10.93;;;;;;;17.25;87.58;101361.63;5047398;28;20060;-63
2021/09/20 08:20:05;;;;;;;25.67;12.52;;;;;;;17.15;89.04;101362.06;5041775;28;20140;-64
2021/09/20 08:22:33;;;;;;;24.92;12.55;;;;;;;17.56;86.03;101355.59;5033661;28;20049;-63
2021/09/20 08:25:01;;;;;;;39.47;13.85;;;;;;;17.47;85.88;101360.47;5048153;28;20049;-63
2021/09/20 08:27:28;;;;;;;54.22;17.42;;;;;;;17.60;85.29;101365.72;5039044;28;20045;-65
2021/09/20 08:29:56;;;;;;;26.30;12.77;;;;;;;17.08;87.99;101370.16;5039665;28;20045;-64
2021/09/20 08:32:23;;;;;;;18.70;10.80;;;;;;;17.41;89.25;101368.19;5042546;28;20053;-65
2021/09/20 08:34:50;;;;;;;27.33;11.85;;;;;;;17.59;87.49;101372.44;5045015;28;20076;-63
2021/09/20 08:37:18;;;;;;;19.67;11.35;;;;;;;17.35;85.08;101369.53;5036133;28;20053;-63
2021/09/20 08:39:48;;;;;;;17.23;10.38;;;;;;;17.68;86.59;101358.41;5054265;28;20411;-65
2021/09/20 08:42:16;;;;;;;37.40;12.00;;;;;;;18.49;81.80;101359.16;5061435;28;20076;-64
2021/09/20 08:44:43;;;;;;;100.50;19.13;;;;;;;18.81;78.57;101369.31;5057737;28;20045;-65
2021/09/20 08:47:13;;;;;;;54.35;14.93;;;;;;;17.84;81.93;101373.28;5057848;28;20056;-62
2021/09/20 08:49:40;;;;;;;24.20;11.63;;;;;;;17.87;81.59;101381.78;5051147;28;20080;-65
2021/09/20 08:52:08;;;;;;;42.67;14.30;;;;;;;17.74;83.09;101368.19;5036553;28;20617;-64
2021/09/20 08:54:36;;;;;;;36.10;12.50;;;;;;;17.89;84.76;101373.88;5052882;28;20103;-63
2021/09/20 08:57:04;;;;;;;37.30;13.65;;;;;;;17.56;84.46;101380.66;5057542;28;20063;-65
2021/09/20 08:59:31;;;;;;;19.35;11.30;;;;;;;17.38;85.40;101388.34;5048813;28;20056;-65
2021/09/20 09:01:59;;;;;;;19.65;11.18;;;;;;;17.49;84.24;101384.00;5049653;28;20049;-63
2021/09/20 09:04:30;;;;;;;20.05;10.68;;;;;;;17.33;84.66;101398.91;5044589;28;20072;-64
2021/09/20 09:07:04;;;;;;;16.95;10.52;;;;;;;17.34;85.92;101393.00;5047524;28;20065;-65
2021/09/20 09:09:36;;;;;;;15.07;10.07;;;;;;;17.72;83.74;101382.47;5052112;28;20048;-64
2021/09/20 09:12:08;;;;;;;17.08;8.45;;;;;;;18.61;80.68;101392.63;5055507;28;20056;-65
2021/09/20 09:14:50;;;;;;;22.35;8.70;;;;;;;19.37;76.59;101391.75;5076656;28;20048;-64
2021/09/20 09:17:21;;;;;;;22.85;11.73;;;;;;;17.95;80.79;101394.81;5076890;28;20083;-63
2021/09/20 09:19:54;;;;;;;29.63;11.73;;;;;;;17.60;84.72;101396.34;5076453;28;20045;-64
2021/09/20 09:22:56;;;;;;;37.38;12.88;;;;;;;18.27;81.59;101393.06;5058674;28;20063;-64
2021/09/20 09:25:48;;;;;;;44.65;14.48;;;;;;;18.31;80.18;101401.56;5035497;28;20073;-65
2021/09/20 09:28:27;;;;;;;39.78;12.27;;;;;;;18.98;77.91;101396.97;5035638;28;20111;-64
2021/09/20 09:30:57;;;;;;;31.42;13.15;;;;;;;18.30;80.57;101408.31;5036974;28;20532;-63
2021/09/20 09:33:46;;;;;;;20.63;12.48;;;;;;;18.02;82.47;101398.97;5037194;28;20058;-63
2021/09/20 09:36:16;;;;;;;24.00;11.45;;;;;;;18.64;79.58;101400.28;5037521;28;20049;-63
2021/09/20 09:38:58;;;;;;;16.95;10.10;;;;;;;18.77;78.17;101409.47;5052544;28;20057;-64
2021/09/20 09:41:43;;;;;;;15.05;10.20;;;;;;;18.99;77.72;101403.34;5019719;28;20057;-65
2021/09/20 09:44:13;;;;;;;25.58;9.73;;;;;;;18.91;76.22;101399.56;5037012;28;20049;-64
2021/09/20 09:46:44;;;;;;;29.33;11.00;;;;;;;18.32;79.42;101415.19;5049244;28;20060;-64
2021/09/20 09:49:22;;;;;;;17.25;9.70;;;;;;;18.33;79.57;101408.41;5038784;28;20063;-65
2021/09/20 09:52:02;;;;;;;18.08;10.32;;;;;;;18.06;80.89;101408.28;5040282;28;20496;-63
2021/09/20 09:54:34;;;;;;;19.05;9.70;;;;;;;18.42;79.27;101411.94;5043811;28;20045;-63
2021/09/20 09:57:23;;;;;;;18.27;10.00;;;;;;;18.11;81.11;101416.44;5054317;28;20060;-64
2021/09/20 09:59:59;;;;;;;15.48;9.88;;;;;;;18.53;80.42;101409.50;5049727;28;20064;-65
2021/09/20 10:02:31;;;;;;;16.88;8.90;;;;;;;19.34;76.33;101423.97;5061470;28;20041;-65
2021/09/20 10:05:04;;;;;;;22.55;11.65;;;;;;;18.94;77.71;101412.81;5035192;28;20085;-65
2021/09/20 10:07:33;;;;;;;16.35;10.20;;;;;;;19.06;77.67;101420.31;5036390;28;20064;-65
2021/09/20 10:10:13;;;;;;;19.85;11.02;;;;;;;18.72;77.98;101416.09;5041857;28;20401;-64
2021/09/20 10:12:42;;;;;;;23.50;10.63;;;;;;;18.40;79.16;101419.84;5036456;28;20056;-64
2021/09/20 10:15:12;;;;;;;32.03;12.90;;;;;;;18.26;80.26;101424.09;5059768;28;20056;-64
2021/09/20 10:17:40;;;;;;;134.60;25.90;;;;;;;18.58;79.51;101428.78;5054923;28;20056;-64
2021/09/20 10:20:10;;;;;;;30.77;14.30;;;;;;;18.42;80.03;101433.44;5043270;28;20820;-65
2021/09/20 10:22:37;;;;;;;;;;;;;;;18.35;80.83;101424.81;5048416;28;20049;-63
2021/09/20 10:25:07;;;;;;;20.00;11.90;;;;;;;18.25;80.03;101422.47;5041234;28;19947;-63
2021/09/20 10:27:35;;;;;;;20.42;11.40;;;;;;;18.01;82.16;101428.03;5041457;28;20056;-62
2021/09/20 10:30:14;;;;;;;21.45;11.38;;;;;;;18.37;81.32;101425.28;5038077;28;20072;-67
2021/09/20 10:32:44;;;;;;;19.45;11.25;;;;;;;18.48;81.02;101429.25;5044369;28;20053;-65
2021/09/20 10:35:22;;;;;;;;;;;;;;;18.51;80.04;101434.97;5044482;28;20056;-64
2021/09/20 10:37:51;;;;;;;18.95;12.00;;;;;;;18.42;80.16;101422.28;5047124;28;19920;-65
2021/09/20 10:40:18;;;;;;;20.75;10.63;;;;;;;18.02;80.71;101427.69;5039887;28;20053;-65
2021/09/20 10:42:52;;;;;;;19.23;11.68;;;;;;;18.34;80.79;101425.97;5048297;28;20053;-62
2021/09/20 10:45:49;;;;;;;21.13;12.00;;;;;;;18.27;82.24;101420.97;5052897;28;20045;-65
2021/09/20 10:48:27;;;;;;;14.40;9.52;;;;;;;18.79;78.49;101424.66;5035239;28;20046;-63
2021/09/20 10:51:14;;;;;;;17.95;9.48;;;;;;;19.07;77.79;101427.53;5061954;28;20574;-66
2021/09/20 10:53:43;;;;;;;16.60;9.18;;;;;;;19.14;76.06;101424.97;5036187;28;20049;-63
2021/09/20 10:56:19;;;;;;;12.68;9.27;;;;;;;19.49;75.85;101419.63;5069119;28;20048;-65
2021/09/20 10:58:52;;;;;;;17.55;10.85;;;;;;;19.74;73.52;101432.28;5040167;28;20049;-65
2021/09/20 11:01:24;;;;;;;16.80;10.27;;;;;;;19.64;72.98;101428.03;5034889;28;20050;-66
2021/09/20 11:04:01;;;;;;;15.55;8.85;;;;;;;18.29;79.22;101432.59;5034611;28;20688;-62
2021/09/20 11:06:30;;;;;;;14.25;8.50;;;;;;;18.48;79.15;101432.84;5033727;28;20589;-65
2021/09/20 11:08:57;;;;;;;17.77;9.17;;;;;;;18.66;77.81;101430.63;5035808;28;20503;-65
2021/09/20 11:11:37;;;;;;;13.00;7.60;;;;;;;19.31;76.39;101424.69;5033472;28;20045;-64
2021/09/20 11:14:08;;;;;;;13.25;8.43;;;;;;;19.45;74.31;101422.31;5063822;28;20048;-64
2021/09/20 11:16:58;;;;;;;16.30;8.48;;;;;;;19.28;73.50;101421.78;5046974;28;20602;-63
2021/09/20 11:19:28;;;;;;;15.33;8.20;;;;;;;19.22;75.02;101418.41;5018863;28;20064;-63
2021/09/20 11:22:11;;;;;;;13.82;7.82;;;;;;;19.31;74.39;101423.88;5046449;28;20048;-62
2021/09/20 11:25:06;;;;;;;13.73;7.60;;;;;;;18.84;76.64;101424.47;5040535;28;20053;-63
2021/09/20 11:27:36;;;;;;;15.18;8.35;;;;;;;19.22;75.05;101431.56;5037775;28;20054;-64
2021/09/20 11:30:19;;;;;;;17.27;8.40;;;;;;;19.08;75.68;101427.19;5075219;28;20052;-64